sensor_id;sensor_type;location;lat;lon;timestamp;P1;durP1;ratioP1;P2;durP2;ratioP2
78670;SDS011;68277;52.724;6.516;2023-03-23T00:01:59;8.65;;;5.07;;
78670;SDS011;68277;52.724;6.516;2023-03-23T00:04:29;11.68;;;5.38;;
78670;SDS011;68277;52.724;6.516;2023-03-23T00:06:55;7.65;;;5.15;;
78670;SDS011;68277;52.724;6.516;2023-03-23T00:09:20;7.30;;;5.15;;
78670;SDS011;68277;52.724;6.516;2023-03-23T00:11:49;7.55;;;4.97;;
78670;SDS011;68277;52.724;6.516;2023-03-23T00:16:41;8.82;;;4.70;;
78670;SDS011;68277;52.724;6.516;2023-03-23T00:19:09;12.00;;;5.18;;
78670;SDS011;68277;52.724;6.516;2023-03-23T00:21:38;6.10;;;4.13;;
78670;SDS011;68277;52.724;6.516;2023-03-23T00:24:10;11.15;;;5.53;;
78670;SDS011;68277;52.724;6.516;2023-03-23T00:26:38;6.97;;;4.75;;
78670;SDS011;68277;52.724;6.516;2023-03-23T00:29:12;6.38;;;3.90;;
78670;SDS011;68277;52.724;6.516;2023-03-23T00:31:43;8.65;;;4.63;;
78670;SDS011;68277;52.724;6.516;2023-03-23T00:34:20;9.02;;;5.28;;
78670;SDS011;68277;52.724;6.516;2023-03-23T00:36:47;12.40;;;4.93;;
78670;SDS011;68277;52.724;6.516;2023-03-23T00:39:15;6.88;;;3.55;;
78670;SDS011;68277;52.724;6.516;2023-03-23T00:41:43;8.25;;;3.35;;
78670;SDS011;68277;52.724;6.516;2023-03-23T00:44:09;5.13;;;2.90;;
78670;SDS011;68277;52.724;6.516;2023-03-23T00:46:35;10.65;;;3.70;;
78670;SDS011;68277;52.724;6.516;2023-03-23T00:49:10;6.82;;;3.25;;
78670;SDS011;68277;52.724;6.516;2023-03-23T00:51:40;7.30;;;3.63;;
78670;SDS011;68277;52.724;6.516;2023-03-23T00:54:07;6.85;;;3.13;;
78670;SDS011;68277;52.724;6.516;2023-03-23T00:56:33;4.25;;;2.13;;
78670;SDS011;68277;52.724;6.516;2023-03-23T00:58:59;3.15;;;2.00;;
78670;SDS011;68277;52.724;6.516;2023-03-23T01:01:24;3.97;;;2.15;;
78670;SDS011;68277;52.724;6.516;2023-03-23T01:03:50;3.85;;;2.42;;
78670;SDS011;68277;52.724;6.516;2023-03-23T01:06:18;4.40;;;2.50;;
78670;SDS011;68277;52.724;6.516;2023-03-23T01:08:43;6.95;;;2.42;;
78670;SDS011;68277;52.724;6.516;2023-03-23T01:11:13;4.30;;;2.40;;
78670;SDS011;68277;52.724;6.516;2023-03-23T01:13:41;4.53;;;2.35;;
78670;SDS011;68277;52.724;6.516;2023-03-23T01:16:07;5.30;;;2.40;;
78670;SDS011;68277;52.724;6.516;2023-03-23T01:18:33;2.97;;;1.98;;
78670;SDS011;68277;52.724;6.516;2023-03-23T01:23:55;6.75;;;1.58;;
78670;SDS011;68277;52.724;6.516;2023-03-23T01:26:22;4.10;;;1.80;;
78670;SDS011;68277;52.724;6.516;2023-03-23T01:28:49;5.25;;;1.85;;
78670;SDS011;68277;52.724;6.516;2023-03-23T01:31:16;4.78;;;2.55;;
78670;SDS011;68277;52.724;6.516;2023-03-23T01:33:43;3.15;;;1.90;;
78670;SDS011;68277;52.724;6.516;2023-03-23T01:36:11;3.60;;;2.78;;
78670;SDS011;68277;52.724;6.516;2023-03-23T01:38:41;6.00;;;2.38;;
78670;SDS011;68277;52.724;6.516;2023-03-23T01:41:12;3.47;;;2.50;;
78670;SDS011;68277;52.724;6.516;2023-03-23T01:43:56;4.40;;;2.05;;
78670;SDS011;68277;52.724;6.516;2023-03-23T01:46:42;4.65;;;2.45;;
78670;SDS011;68277;52.724;6.516;2023-03-23T01:49:09;8.63;;;3.33;;
78670;SDS011;68277;52.724;6.516;2023-03-23T01:51:44;3.60;;;2.10;;
78670;SDS011;68277;52.724;6.516;2023-03-23T01:54:13;7.25;;;2.58;;
78670;SDS011;68277;52.724;6.516;2023-03-23T01:56:59;6.47;;;2.72;;
78670;SDS011;68277;52.724;6.516;2023-03-23T01:59:29;5.70;;;2.22;;
78670;SDS011;68277;52.724;6.516;2023-03-23T02:02:17;4.63;;;2.55;;
78670;SDS011;68277;52.724;6.516;2023-03-23T02:04:47;9.32;;;2.13;;
78670;SDS011;68277;52.724;6.516;2023-03-23T02:07:13;5.68;;;2.22;;
78670;SDS011;68277;52.724;6.516;2023-03-23T02:09:40;5.25;;;2.00;;
78670;SDS011;68277;52.724;6.516;2023-03-23T02:12:06;4.75;;;2.15;;
78670;SDS011;68277;52.724;6.516;2023-03-23T02:14:34;4.95;;;1.95;;
78670;SDS011;68277;52.724;6.516;2023-03-23T02:24:53;2.72;;;1.63;;
78670;SDS011;68277;52.724;6.516;2023-03-23T02:35:46;5.10;;;2.38;;
78670;SDS011;68277;52.724;6.516;2023-03-23T02:38:21;6.47;;;2.22;;
78670;SDS011;68277;52.724;6.516;2023-03-23T02:40:52;3.83;;;2.22;;
78670;SDS011;68277;52.724;6.516;2023-03-23T02:43:21;5.35;;;2.33;;
78670;SDS011;68277;52.724;6.516;2023-03-23T02:45:51;2.53;;;2.05;;
78670;SDS011;68277;52.724;6.516;2023-03-23T02:48:18;5.75;;;2.55;;
78670;SDS011;68277;52.724;6.516;2023-03-23T02:50:48;6.15;;;2.22;;
78670;SDS011;68277;52.724;6.516;2023-03-23T02:53:23;7.90;;;2.38;;
78670;SDS011;68277;52.724;6.516;2023-03-23T02:55:52;4.95;;;2.83;;
78670;SDS011;68277;52.724;6.516;2023-03-23T02:58:25;4.72;;;2.50;;
78670;SDS011;68277;52.724;6.516;2023-03-23T03:00:53;4.40;;;2.85;;
78670;SDS011;68277;52.724;6.516;2023-03-23T03:03:22;2.80;;;2.20;;
78670;SDS011;68277;52.724;6.516;2023-03-23T03:06:09;5.40;;;3.17;;
78670;SDS011;68277;52.724;6.516;2023-03-23T03:08:52;3.35;;;2.40;;
78670;SDS011;68277;52.724;6.516;2023-03-23T03:11:22;5.50;;;2.83;;
78670;SDS011;68277;52.724;6.516;2023-03-23T03:14:02;5.80;;;2.22;;
78670;SDS011;68277;52.724;6.516;2023-03-23T03:16:36;6.75;;;2.85;;
78670;SDS011;68277;52.724;6.516;2023-03-23T03:19:11;5.80;;;2.85;;
78670;SDS011;68277;52.724;6.516;2023-03-23T03:21:43;3.75;;;2.30;;
78670;SDS011;68277;52.724;6.516;2023-03-23T03:24:15;3.65;;;2.53;;
78670;SDS011;68277;52.724;6.516;2023-03-23T03:26:49;8.55;;;2.45;;
78670;SDS011;68277;52.724;6.516;2023-03-23T03:29:34;4.60;;;1.80;;
78670;SDS011;68277;52.724;6.516;2023-03-23T03:32:03;3.75;;;2.40;;
78670;SDS011;68277;52.724;6.516;2023-03-23T03:34:33;3.17;;;2.13;;
78670;SDS011;68277;52.724;6.516;2023-03-23T03:36:59;4.53;;;2.28;;
78670;SDS011;68277;52.724;6.516;2023-03-23T03:39:26;8.68;;;2.88;;
78670;SDS011;68277;52.724;6.516;2023-03-23T03:41:52;4.20;;;2.33;;
78670;SDS011;68277;52.724;6.516;2023-03-23T03:44:19;4.25;;;2.53;;
78670;SDS011;68277;52.724;6.516;2023-03-23T03:46:45;4.70;;;2.65;;
78670;SDS011;68277;52.724;6.516;2023-03-23T03:49:10;10.98;;;2.88;;
78670;SDS011;68277;52.724;6.516;2023-03-23T03:51:38;5.25;;;2.22;;
78670;SDS011;68277;52.724;6.516;2023-03-23T03:54:05;5.13;;;2.90;;
78670;SDS011;68277;52.724;6.516;2023-03-23T03:56:31;3.90;;;2.72;;
78670;SDS011;68277;52.724;6.516;2023-03-23T03:59:26;5.72;;;2.50;;
78670;SDS011;68277;52.724;6.516;2023-03-23T04:02:25;4.13;;;3.05;;
78670;SDS011;68277;52.724;6.516;2023-03-23T04:04:51;6.63;;;2.65;;
78670;SDS011;68277;52.724;6.516;2023-03-23T04:07:18;3.95;;;2.88;;
78670;SDS011;68277;52.724;6.516;2023-03-23T04:09:44;4.10;;;2.88;;
78670;SDS011;68277;52.724;6.516;2023-03-23T04:12:13;5.93;;;2.95;;
78670;SDS011;68277;52.724;6.516;2023-03-23T04:14:54;4.10;;;2.70;;
78670;SDS011;68277;52.724;6.516;2023-03-23T04:17:22;6.65;;;3.20;;
78670;SDS011;68277;52.724;6.516;2023-03-23T04:19:47;4.47;;;2.88;;
78670;SDS011;68277;52.724;6.516;2023-03-23T04:22:14;4.38;;;3.30;;
78670;SDS011;68277;52.724;6.516;2023-03-23T04:24:42;5.00;;;3.35;;
78670;SDS011;68277;52.724;6.516;2023-03-23T04:27:11;4.40;;;2.40;;
78670;SDS011;68277;52.724;6.516;2023-03-23T04:29:38;5.00;;;3.13;;
78670;SDS011;68277;52.724;6.516;2023-03-23T04:32:23;5.95;;;3.15;;
78670;SDS011;68277;52.724;6.516;2023-03-23T04:34:52;7.63;;;2.67;;
78670;SDS011;68277;52.724;6.516;2023-03-23T04:37:24;7.18;;;3.33;;
78670;SDS011;68277;52.724;6.516;2023-03-23T04:39:55;4.45;;;2.92;;
78670;SDS011;68277;52.724;6.516;2023-03-23T04:42:27;8.57;;;3.05;;
78670;SDS011;68277;52.724;6.516;2023-03-23T04:45:15;6.78;;;3.13;;
78670;SDS011;68277;52.724;6.516;2023-03-23T04:47:51;4.32;;;2.33;;
78670;SDS011;68277;52.724;6.516;2023-03-23T04:50:32;9.07;;;3.35;;
78670;SDS011;68277;52.724;6.516;2023-03-23T04:53:08;7.47;;;2.90;;
78670;SDS011;68277;52.724;6.516;2023-03-23T04:55:35;7.88;;;3.78;;
78670;SDS011;68277;52.724;6.516;2023-03-23T04:58:03;5.13;;;2.97;;
78670;SDS011;68277;52.724;6.516;2023-03-23T05:00:41;3.88;;;2.65;;
78670;SDS011;68277;52.724;6.516;2023-03-23T05:03:09;4.93;;;2.95;;
78670;SDS011;68277;52.724;6.516;2023-03-23T05:05:36;6.85;;;2.38;;
78670;SDS011;68277;52.724;6.516;2023-03-23T05:08:05;5.07;;;3.17;;
78670;SDS011;68277;52.724;6.516;2023-03-23T05:10:35;4.18;;;2.67;;
78670;SDS011;68277;52.724;6.516;2023-03-23T05:13:06;3.72;;;2.30;;
78670;SDS011;68277;52.724;6.516;2023-03-23T05:15:32;5.63;;;2.50;;
78670;SDS011;68277;52.724;6.516;2023-03-23T05:20:24;4.95;;;2.38;;
78670;SDS011;68277;52.724;6.516;2023-03-23T05:22:55;4.82;;;2.10;;
78670;SDS011;68277;52.724;6.516;2023-03-23T05:25:27;8.20;;;2.67;;
78670;SDS011;68277;52.724;6.516;2023-03-23T05:28:03;5.32;;;2.15;;
78670;SDS011;68277;52.724;6.516;2023-03-23T05:30:54;4.00;;;3.00;;
78670;SDS011;68277;52.724;6.516;2023-03-23T05:33:26;5.53;;;3.20;;
78670;SDS011;68277;52.724;6.516;2023-03-23T05:36:04;10.15;;;3.30;;
78670;SDS011;68277;52.724;6.516;2023-03-23T05:38:42;7.38;;;3.00;;
78670;SDS011;68277;52.724;6.516;2023-03-23T05:41:14;4.40;;;2.38;;
78670;SDS011;68277;52.724;6.516;2023-03-23T05:43:40;6.90;;;1.98;;
78670;SDS011;68277;52.724;6.516;2023-03-23T05:46:26;6.57;;;2.70;;
78670;SDS011;68277;52.724;6.516;2023-03-23T05:48:59;2.08;;;1.42;;
78670;SDS011;68277;52.724;6.516;2023-03-23T05:51:32;2.95;;;2.08;;
78670;SDS011;68277;52.724;6.516;2023-03-23T05:53:58;2.03;;;1.73;;
78670;SDS011;68277;52.724;6.516;2023-03-23T05:56:25;3.42;;;1.60;;
78670;SDS011;68277;52.724;6.516;2023-03-23T06:01:37;2.58;;;1.58;;
78670;SDS011;68277;52.724;6.516;2023-03-23T06:04:03;4.35;;;1.83;;
78670;SDS011;68277;52.724;6.516;2023-03-23T06:06:46;2.72;;;1.40;;
78670;SDS011;68277;52.724;6.516;2023-03-23T06:09:13;3.83;;;2.08;;
78670;SDS011;68277;52.724;6.516;2023-03-23T06:12:10;3.55;;;1.63;;
78670;SDS011;68277;52.724;6.516;2023-03-23T06:14:55;4.57;;;1.70;;
78670;SDS011;68277;52.724;6.516;2023-03-23T06:17:29;4.68;;;1.80;;
78670;SDS011;68277;52.724;6.516;2023-03-23T06:19:55;4.53;;;1.77;;
78670;SDS011;68277;52.724;6.516;2023-03-23T06:22:22;5.03;;;2.22;;
78670;SDS011;68277;52.724;6.516;2023-03-23T06:27:27;6.10;;;1.98;;
78670;SDS011;68277;52.724;6.516;2023-03-23T06:29:54;3.08;;;2.17;;
78670;SDS011;68277;52.724;6.516;2023-03-23T06:32:20;9.20;;;2.80;;
78670;SDS011;68277;52.724;6.516;2023-03-23T06:34:48;3.53;;;1.95;;
78670;SDS011;68277;52.724;6.516;2023-03-23T06:37:33;8.05;;;2.28;;
78670;SDS011;68277;52.724;6.516;2023-03-23T06:40:09;5.25;;;2.25;;
78670;SDS011;68277;52.724;6.516;2023-03-23T06:42:40;8.10;;;2.00;;
78670;SDS011;68277;52.724;6.516;2023-03-23T06:45:24;3.08;;;1.80;;
78670;SDS011;68277;52.724;6.516;2023-03-23T06:50:35;11.60;;;2.28;;
78670;SDS011;68277;52.724;6.516;2023-03-23T06:53:02;4.88;;;1.98;;
78670;SDS011;68277;52.724;6.516;2023-03-23T06:55:27;6.60;;;2.40;;
78670;SDS011;68277;52.724;6.516;2023-03-23T06:57:53;7.80;;;2.20;;
78670;SDS011;68277;52.724;6.516;2023-03-23T07:00:18;8.20;;;2.03;;
78670;SDS011;68277;52.724;6.516;2023-03-23T07:02:47;7.13;;;1.92;;
78670;SDS011;68277;52.724;6.516;2023-03-23T07:05:13;2.55;;;1.77;;
78670;SDS011;68277;52.724;6.516;2023-03-23T07:07:42;4.90;;;2.13;;
78670;SDS011;68277;52.724;6.516;2023-03-23T07:10:31;7.40;;;2.47;;
78670;SDS011;68277;52.724;6.516;2023-03-23T07:13:04;5.10;;;2.00;;
78670;SDS011;68277;52.724;6.516;2023-03-23T07:15:40;3.35;;;1.83;;
78670;SDS011;68277;52.724;6.516;2023-03-23T07:18:05;6.00;;;2.20;;
78670;SDS011;68277;52.724;6.516;2023-03-23T07:20:40;6.18;;;2.47;;
78670;SDS011;68277;52.724;6.516;2023-03-23T07:23:06;5.40;;;2.35;;
78670;SDS011;68277;52.724;6.516;2023-03-23T07:25:46;10.15;;;2.00;;
78670;SDS011;68277;52.724;6.516;2023-03-23T07:28:18;7.53;;;2.30;;
78670;SDS011;68277;52.724;6.516;2023-03-23T07:30:44;3.95;;;2.20;;
78670;SDS011;68277;52.724;6.516;2023-03-23T07:33:10;6.78;;;2.35;;
78670;SDS011;68277;52.724;6.516;2023-03-23T07:35:36;3.88;;;2.20;;
78670;SDS011;68277;52.724;6.516;2023-03-23T07:38:06;9.38;;;2.25;;
78670;SDS011;68277;52.724;6.516;2023-03-23T07:40:33;6.32;;;1.85;;
78670;SDS011;68277;52.724;6.516;2023-03-23T07:43:04;5.90;;;1.75;;
78670;SDS011;68277;52.724;6.516;2023-03-23T07:45:49;6.25;;;1.73;;
78670;SDS011;68277;52.724;6.516;2023-03-23T07:48:16;7.85;;;2.25;;
78670;SDS011;68277;52.724;6.516;2023-03-23T07:50:42;4.97;;;1.50;;
78670;SDS011;68277;52.724;6.516;2023-03-23T07:53:10;5.57;;;1.77;;
78670;SDS011;68277;52.724;6.516;2023-03-23T07:58:25;13.05;;;2.42;;
78670;SDS011;68277;52.724;6.516;2023-03-23T08:00:54;4.28;;;1.88;;
78670;SDS011;68277;52.724;6.516;2023-03-23T08:03:23;6.30;;;1.95;;
78670;SDS011;68277;52.724;6.516;2023-03-23T08:06:10;9.32;;;2.35;;
78670;SDS011;68277;52.724;6.516;2023-03-23T08:09:02;8.63;;;2.47;;
78670;SDS011;68277;52.724;6.516;2023-03-23T08:11:52;12.15;;;2.53;;
78670;SDS011;68277;52.724;6.516;2023-03-23T08:14:39;6.57;;;2.25;;
78670;SDS011;68277;52.724;6.516;2023-03-23T08:17:26;8.68;;;3.13;;
78670;SDS011;68277;52.724;6.516;2023-03-23T08:20:27;9.73;;;2.53;;
78670;SDS011;68277;52.724;6.516;2023-03-23T08:23:15;8.90;;;1.98;;
78670;SDS011;68277;52.724;6.516;2023-03-23T08:25:59;10.45;;;2.58;;
78670;SDS011;68277;52.724;6.516;2023-03-23T08:29:04;5.50;;;2.65;;
78670;SDS011;68277;52.724;6.516;2023-03-23T08:31:48;4.85;;;1.75;;
78670;SDS011;68277;52.724;6.516;2023-03-23T08:34:38;8.48;;;2.20;;
78670;SDS011;68277;52.724;6.516;2023-03-23T08:37:17;8.40;;;2.40;;
78670;SDS011;68277;52.724;6.516;2023-03-23T08:40:01;5.45;;;1.90;;
78670;SDS011;68277;52.724;6.516;2023-03-23T08:42:48;8.43;;;3.38;;
78670;SDS011;68277;52.724;6.516;2023-03-23T08:45:33;11.68;;;3.08;;
78670;SDS011;68277;52.724;6.516;2023-03-23T08:48:14;9.07;;;3.20;;
78670;SDS011;68277;52.724;6.516;2023-03-23T08:50:54;9.63;;;2.38;;
78670;SDS011;68277;52.724;6.516;2023-03-23T08:53:38;12.50;;;3.10;;
78670;SDS011;68277;52.724;6.516;2023-03-23T08:56:33;8.57;;;2.70;;
78670;SDS011;68277;52.724;6.516;2023-03-23T08:59:21;7.65;;;2.50;;
78670;SDS011;68277;52.724;6.516;2023-03-23T09:02:14;7.68;;;2.25;;
78670;SDS011;68277;52.724;6.516;2023-03-23T09:04:48;9.10;;;2.65;;
78670;SDS011;68277;52.724;6.516;2023-03-23T09:07:38;7.63;;;2.97;;
78670;SDS011;68277;52.724;6.516;2023-03-23T09:10:04;5.53;;;2.20;;
78670;SDS011;68277;52.724;6.516;2023-03-23T09:12:30;5.35;;;2.33;;
78670;SDS011;68277;52.724;6.516;2023-03-23T09:14:55;15.15;;;2.50;;
78670;SDS011;68277;52.724;6.516;2023-03-23T09:17:22;8.65;;;2.72;;
78670;SDS011;68277;52.724;6.516;2023-03-23T09:19:47;10.45;;;2.35;;
78670;SDS011;68277;52.724;6.516;2023-03-23T09:22:13;9.10;;;2.85;;
78670;SDS011;68277;52.724;6.516;2023-03-23T09:24:40;6.32;;;2.95;;
78670;SDS011;68277;52.724;6.516;2023-03-23T09:27:06;9.90;;;2.80;;
78670;SDS011;68277;52.724;6.516;2023-03-23T09:29:31;12.07;;;3.10;;
78670;SDS011;68277;52.724;6.516;2023-03-23T09:31:57;8.27;;;2.15;;
78670;SDS011;68277;52.724;6.516;2023-03-23T09:34:23;4.15;;;2.03;;
78670;SDS011;68277;52.724;6.516;2023-03-23T09:36:48;11.57;;;2.50;;
78670;SDS011;68277;52.724;6.516;2023-03-23T09:39:14;5.43;;;1.88;;
78670;SDS011;68277;52.724;6.516;2023-03-23T09:47:20;7.07;;;2.10;;
78670;SDS011;68277;52.724;6.516;2023-03-23T09:52:43;10.07;;;2.22;;
78670;SDS011;68277;52.724;6.516;2023-03-23T09:55:15;5.03;;;2.08;;
78670;SDS011;68277;52.724;6.516;2023-03-23T09:57:53;10.32;;;2.40;;
78670;SDS011;68277;52.724;6.516;2023-03-23T10:00:42;8.55;;;1.95;;
78670;SDS011;68277;52.724;6.516;2023-03-23T10:03:20;7.97;;;1.67;;
78670;SDS011;68277;52.724;6.516;2023-03-23T10:05:52;5.57;;;1.50;;
78670;SDS011;68277;52.724;6.516;2023-03-23T10:08:20;10.43;;;2.25;;
78670;SDS011;68277;52.724;6.516;2023-03-23T10:13:48;6.15;;;2.08;;
78670;SDS011;68277;52.724;6.516;2023-03-23T10:16:22;5.32;;;1.50;;
78670;SDS011;68277;52.724;6.516;2023-03-23T10:21:35;3.80;;;1.40;;
78670;SDS011;68277;52.724;6.516;2023-03-23T10:24:04;3.50;;;1.08;;
78670;SDS011;68277;52.724;6.516;2023-03-23T10:29:43;4.93;;;1.27;;
78670;SDS011;68277;52.724;6.516;2023-03-23T10:32:17;7.03;;;1.58;;
78670;SDS011;68277;52.724;6.516;2023-03-23T10:37:24;3.15;;;1.10;;
78670;SDS011;68277;52.724;6.516;2023-03-23T10:39:59;5.25;;;1.33;;
78670;SDS011;68277;52.724;6.516;2023-03-23T10:42:27;4.18;;;1.60;;
78670;SDS011;68277;52.724;6.516;2023-03-23T10:44:56;7.82;;;1.67;;
78670;SDS011;68277;52.724;6.516;2023-03-23T10:47:25;5.63;;;1.50;;
78670;SDS011;68277;52.724;6.516;2023-03-23T10:50:00;5.10;;;1.42;;
78670;SDS011;68277;52.724;6.516;2023-03-23T10:52:35;3.63;;;1.63;;
78670;SDS011;68277;52.724;6.516;2023-03-23T10:55:04;4.70;;;1.38;;
78670;SDS011;68277;52.724;6.516;2023-03-23T10:57:35;10.05;;;1.70;;
78670;SDS011;68277;52.724;6.516;2023-03-23T11:00:39;4.53;;;2.22;;
78670;SDS011;68277;52.724;6.516;2023-03-23T11:03:06;5.40;;;1.30;;
78670;SDS011;68277;52.724;6.516;2023-03-23T11:05:56;4.82;;;1.60;;
78670;SDS011;68277;52.724;6.516;2023-03-23T11:08:28;10.30;;;1.70;;
78670;SDS011;68277;52.724;6.516;2023-03-23T11:13:37;4.22;;;1.55;;
78670;SDS011;68277;52.724;6.516;2023-03-23T11:16:09;7.75;;;1.92;;
78670;SDS011;68277;52.724;6.516;2023-03-23T11:18:38;6.40;;;1.42;;
78670;SDS011;68277;52.724;6.516;2023-03-23T11:21:07;10.00;;;1.40;;
78670;SDS011;68277;52.724;6.516;2023-03-23T11:23:37;3.45;;;2.15;;
78670;SDS011;68277;52.724;6.516;2023-03-23T11:28:42;5.13;;;1.13;;
78670;SDS011;68277;52.724;6.516;2023-03-23T11:31:11;5.75;;;1.88;;
78670;SDS011;68277;52.724;6.516;2023-03-23T11:33:56;4.72;;;1.10;;
78670;SDS011;68277;52.724;6.516;2023-03-23T11:36:29;4.70;;;1.63;;
78670;SDS011;68277;52.724;6.516;2023-03-23T11:39:18;8.27;;;1.58;;
78670;SDS011;68277;52.724;6.516;2023-03-23T11:41:46;6.35;;;2.13;;
78670;SDS011;68277;52.724;6.516;2023-03-23T11:44:13;4.85;;;1.42;;
78670;SDS011;68277;52.724;6.516;2023-03-23T11:49:12;7.85;;;1.50;;
78670;SDS011;68277;52.724;6.516;2023-03-23T11:51:45;6.03;;;1.50;;
78670;SDS011;68277;52.724;6.516;2023-03-23T11:54:17;3.00;;;1.60;;
78670;SDS011;68277;52.724;6.516;2023-03-23T11:56:49;3.40;;;1.50;;
78670;SDS011;68277;52.724;6.516;2023-03-23T11:59:16;3.22;;;1.10;;
78670;SDS011;68277;52.724;6.516;2023-03-23T12:04:25;5.18;;;1.27;;
78670;SDS011;68277;52.724;6.516;2023-03-23T12:07:14;2.40;;;1.38;;
78670;SDS011;68277;52.724;6.516;2023-03-23T12:10:14;3.90;;;1.95;;
78670;SDS011;68277;52.724;6.516;2023-03-23T12:27:03;6.25;;;1.70;;
78670;SDS011;68277;52.724;6.516;2023-03-23T12:29:42;8.07;;;1.88;;
78670;SDS011;68277;52.724;6.516;2023-03-23T12:35:27;6.07;;;1.40;;
78670;SDS011;68277;52.724;6.516;2023-03-23T12:43:39;4.40;;;1.13;;
78670;SDS011;68277;52.724;6.516;2023-03-23T12:49:24;4.70;;;1.50;;
78670;SDS011;68277;52.724;6.516;2023-03-23T12:57:21;10.73;;;2.47;;
78670;SDS011;68277;52.724;6.516;2023-03-23T13:08:13;8.75;;;1.85;;
78670;SDS011;68277;52.724;6.516;2023-03-23T13:10:48;5.38;;;1.10;;
78670;SDS011;68277;52.724;6.516;2023-03-23T13:14:00;5.82;;;1.35;;
78670;SDS011;68277;52.724;6.516;2023-03-23T13:16:27;4.03;;;1.17;;
78670;SDS011;68277;52.724;6.516;2023-03-23T13:21:32;5.40;;;0.93;;
78670;SDS011;68277;52.724;6.516;2023-03-23T13:24:04;5.82;;;1.30;;
78670;SDS011;68277;52.724;6.516;2023-03-23T13:26:36;6.22;;;1.45;;
78670;SDS011;68277;52.724;6.516;2023-03-23T13:32:15;4.30;;;1.23;;
78670;SDS011;68277;52.724;6.516;2023-03-23T13:34:42;3.28;;;1.05;;
78670;SDS011;68277;52.724;6.516;2023-03-23T13:37:19;8.73;;;1.90;;
78670;SDS011;68277;52.724;6.516;2023-03-23T13:39:51;7.32;;;2.63;;
78670;SDS011;68277;52.724;6.516;2023-03-23T13:42:27;7.30;;;2.20;;
78670;SDS011;68277;52.724;6.516;2023-03-23T13:50:29;4.88;;;1.40;;
78670;SDS011;68277;52.724;6.516;2023-03-23T13:53:00;3.15;;;1.00;;
78670;SDS011;68277;52.724;6.516;2023-03-23T13:55:42;7.82;;;1.20;;
78670;SDS011;68277;52.724;6.516;2023-03-23T13:58:21;4.63;;;1.00;;
78670;SDS011;68277;52.724;6.516;2023-03-23T14:00:49;3.60;;;1.45;;
78670;SDS011;68277;52.724;6.516;2023-03-23T14:03:32;3.60;;;1.13;;
78670;SDS011;68277;52.724;6.516;2023-03-23T14:06:06;3.65;;;0.98;;
78670;SDS011;68277;52.724;6.516;2023-03-23T14:08:55;6.28;;;1.50;;
78670;SDS011;68277;52.724;6.516;2023-03-23T14:11:25;4.68;;;1.33;;
78670;SDS011;68277;52.724;6.516;2023-03-23T14:14:04;7.45;;;1.80;;
78670;SDS011;68277;52.724;6.516;2023-03-23T14:16:35;9.02;;;1.95;;
78670;SDS011;68277;52.724;6.516;2023-03-23T14:19:13;2.53;;;1.08;;
78670;SDS011;68277;52.724;6.516;2023-03-23T14:21:54;4.75;;;1.42;;
78670;SDS011;68277;52.724;6.516;2023-03-23T14:24:31;13.68;;;2.08;;
78670;SDS011;68277;52.724;6.516;2023-03-23T14:29:33;3.53;;;1.05;;
78670;SDS011;68277;52.724;6.516;2023-03-23T14:31:59;4.85;;;1.30;;
78670;SDS011;68277;52.724;6.516;2023-03-23T14:34:25;2.88;;;1.73;;
78670;SDS011;68277;52.724;6.516;2023-03-23T14:36:54;3.10;;;1.00;;
78670;SDS011;68277;52.724;6.516;2023-03-23T14:41:47;6.85;;;2.05;;
78670;SDS011;68277;52.724;6.516;2023-03-23T14:44:15;5.13;;;1.77;;
78670;SDS011;68277;52.724;6.516;2023-03-23T14:49:14;10.32;;;2.40;;
78670;SDS011;68277;52.724;6.516;2023-03-23T14:51:49;4.50;;;1.50;;
78670;SDS011;68277;52.724;6.516;2023-03-23T14:54:27;8.27;;;1.45;;
78670;SDS011;68277;52.724;6.516;2023-03-23T14:56:54;7.57;;;2.15;;
78670;SDS011;68277;52.724;6.516;2023-03-23T14:59:21;4.82;;;2.03;;
78670;SDS011;68277;52.724;6.516;2023-03-23T15:01:47;3.25;;;1.10;;
78670;SDS011;68277;52.724;6.516;2023-03-23T15:04:20;4.82;;;1.52;;
78670;SDS011;68277;52.724;6.516;2023-03-23T15:06:54;6.22;;;1.88;;
78670;SDS011;68277;52.724;6.516;2023-03-23T15:09:25;9.48;;;1.85;;
78670;SDS011;68277;52.724;6.516;2023-03-23T15:17:26;6.45;;;1.70;;
78670;SDS011;68277;52.724;6.516;2023-03-23T15:19:54;5.28;;;1.33;;
78670;SDS011;68277;52.724;6.516;2023-03-23T15:24:52;3.42;;;1.50;;
78670;SDS011;68277;52.724;6.516;2023-03-23T15:27:30;8.68;;;2.22;;
78670;SDS011;68277;52.724;6.516;2023-03-23T15:29:59;4.95;;;1.20;;
78670;SDS011;68277;52.724;6.516;2023-03-23T15:35:12;3.22;;;1.30;;
78670;SDS011;68277;52.724;6.516;2023-03-23T15:37:47;4.88;;;1.42;;
78670;SDS011;68277;52.724;6.516;2023-03-23T15:40:16;6.22;;;1.15;;
78670;SDS011;68277;52.724;6.516;2023-03-23T15:42:43;9.60;;;1.48;;
78670;SDS011;68277;52.724;6.516;2023-03-23T15:50:12;9.45;;;1.40;;
78670;SDS011;68277;52.724;6.516;2023-03-23T15:52:43;4.72;;;1.52;;
78670;SDS011;68277;52.724;6.516;2023-03-23T15:55:27;4.00;;;1.65;;
78670;SDS011;68277;52.724;6.516;2023-03-23T15:58:15;8.35;;;1.45;;
78670;SDS011;68277;52.724;6.516;2023-03-23T16:00:44;7.55;;;3.00;;
78670;SDS011;68277;52.724;6.516;2023-03-23T16:03:15;8.23;;;2.00;;
78670;SDS011;68277;52.724;6.516;2023-03-23T16:05:44;6.20;;;2.58;;
78670;SDS011;68277;52.724;6.516;2023-03-23T16:08:10;8.98;;;2.88;;
78670;SDS011;68277;52.724;6.516;2023-03-23T16:10:36;5.50;;;2.28;;
78670;SDS011;68277;52.724;6.516;2023-03-23T16:13:02;5.05;;;3.80;;
78670;SDS011;68277;52.724;6.516;2023-03-23T16:15:29;18.30;;;5.47;;
78670;SDS011;68277;52.724;6.516;2023-03-23T16:17:55;11.10;;;4.40;;
78670;SDS011;68277;52.724;6.516;2023-03-23T16:20:22;11.57;;;4.20;;
78670;SDS011;68277;52.724;6.516;2023-03-23T16:22:48;13.82;;;3.60;;
78670;SDS011;68277;52.724;6.516;2023-03-23T16:25:15;6.57;;;2.00;;
78670;SDS011;68277;52.724;6.516;2023-03-23T16:27:42;6.90;;;2.80;;
78670;SDS011;68277;52.724;6.516;2023-03-23T16:30:23;5.57;;;1.50;;
78670;SDS011;68277;52.724;6.516;2023-03-23T16:32:50;4.88;;;1.30;;
78670;SDS011;68277;52.724;6.516;2023-03-23T16:35:16;4.05;;;1.27;;
78670;SDS011;68277;52.724;6.516;2023-03-23T16:37:50;6.47;;;1.55;;
78670;SDS011;68277;52.724;6.516;2023-03-23T16:40:17;6.55;;;1.65;;
78670;SDS011;68277;52.724;6.516;2023-03-23T16:42:43;3.58;;;1.40;;
78670;SDS011;68277;52.724;6.516;2023-03-23T16:45:10;5.38;;;1.23;;
78670;SDS011;68277;52.724;6.516;2023-03-23T16:47:37;2.63;;;1.05;;
78670;SDS011;68277;52.724;6.516;2023-03-23T16:50:05;2.20;;;1.00;;
78670;SDS011;68277;52.724;6.516;2023-03-23T16:52:34;4.25;;;1.48;;
78670;SDS011;68277;52.724;6.516;2023-03-23T16:54:59;3.80;;;1.30;;
78670;SDS011;68277;52.724;6.516;2023-03-23T16:57:25;5.97;;;1.70;;
78670;SDS011;68277;52.724;6.516;2023-03-23T16:59:51;5.30;;;1.77;;
78670;SDS011;68277;52.724;6.516;2023-03-23T17:02:16;5.63;;;2.78;;
78670;SDS011;68277;52.724;6.516;2023-03-23T17:04:42;8.55;;;3.05;;
78670;SDS011;68277;52.724;6.516;2023-03-23T17:07:10;5.82;;;1.90;;
78670;SDS011;68277;52.724;6.516;2023-03-23T17:09:36;7.80;;;2.00;;
78670;SDS011;68277;52.724;6.516;2023-03-23T17:12:02;9.15;;;2.53;;
78670;SDS011;68277;52.724;6.516;2023-03-23T17:14:28;7.15;;;2.38;;
78670;SDS011;68277;52.724;6.516;2023-03-23T17:16:53;5.93;;;2.20;;
78670;SDS011;68277;52.724;6.516;2023-03-23T17:19:19;2.60;;;1.27;;
78670;SDS011;68277;52.724;6.516;2023-03-23T17:21:44;3.15;;;1.40;;
78670;SDS011;68277;52.724;6.516;2023-03-23T17:24:12;5.20;;;1.83;;
78670;SDS011;68277;52.724;6.516;2023-03-23T17:26:38;3.10;;;1.00;;
78670;SDS011;68277;52.724;6.516;2023-03-23T17:29:04;4.90;;;1.20;;
78670;SDS011;68277;52.724;6.516;2023-03-23T17:31:30;5.10;;;2.47;;
78670;SDS011;68277;52.724;6.516;2023-03-23T17:33:55;4.13;;;1.35;;
78670;SDS011;68277;52.724;6.516;2023-03-23T17:36:22;7.13;;;1.65;;